createdAt,value
2023-02-14T00:02:38.689Z,216.16
2023-02-14T00:05:45.590Z,220.19
2023-02-14T00:08:54.363Z,226.97
2023-02-14T00:12:01.166Z,227.34
2023-02-14T00:15:20.105Z,222.16
2023-02-14T00:18:50.180Z,227.80
2023-02-14T00:21:56.588Z,225.71
2023-02-14T00:25:03.943Z,227.31
2023-02-14T00:28:09.801Z,228.60
2023-02-14T00:31:16.482Z,233.39
2023-02-14T00:34:25.633Z,229.04
2023-02-14T00:37:32.461Z,235.21
2023-02-14T00:40:38.198Z,232.93
2023-02-14T00:43:44.757Z,230.40
2023-02-14T00:46:50.642Z,221.61
2023-02-14T00:50:03.012Z,219.10
2023-02-14T00:53:08.866Z,222.20
2023-02-14T00:56:16.439Z,215.56
2023-02-14T00:59:22.422Z,211.07
2023-02-14T01:02:29.053Z,206.78
2023-02-14T01:05:37.501Z,202.48
2023-02-14T01:08:44.449Z,206.51
2023-02-14T01:11:50.227Z,211.86
2023-02-14T01:14:57.024Z,215.59
2023-02-14T01:18:03.622Z,203.56
2023-02-14T01:21:20.952Z,199.12
2023-02-14T01:24:27.707Z,198.89
2023-02-14T01:27:34.333Z,198.49
2023-02-14T01:30:40.254Z,187.93
2023-02-14T01:33:51.990Z,180.88
2023-02-14T01:37:00.421Z,179.96
2023-02-14T01:40:08.807Z,184.09
2023-02-14T01:43:21.902Z,192.52
2023-02-14T01:46:30.795Z,176.25
2023-02-14T01:49:44.108Z,176.55
2023-02-14T01:53:00.798Z,182.93
2023-02-14T01:56:15.678Z,187.50
2023-02-14T01:59:29.463Z,191.69
2023-02-14T02:02:35.262Z,196.25
2023-02-14T02:05:51.402Z,196.86
2023-02-14T02:09:15.252Z,195.55
2023-02-14T02:12:22.292Z,195.38
2023-02-14T02:15:34.305Z,185.98
2023-02-14T02:19:11.368Z,197.14
2023-02-14T02:23:10.332Z,192.49
2023-02-14T02:27:11.547Z,192.42
2023-02-14T02:31:10.832Z,194.55
2023-02-14T02:35:15.192Z,189.06
2023-02-14T02:38:50.104Z,183.37
2023-02-14T02:42:17.872Z,183.55
2023-02-14T02:46:05.067Z,190.56
2023-02-14T02:49:38.941Z,179.33
2023-02-14T02:53:06.459Z,176.93
2023-02-14T02:56:37.812Z,184.00
2023-02-14T02:59:48.941Z,184.71
2023-02-14T03:03:13.344Z,180.79
2023-02-14T03:06:19.125Z,171.80
2023-02-14T03:10:00.433Z,167.26
2023-02-14T03:13:34.602Z,160.82
2023-02-14T03:17:07.908Z,164.50
2023-02-14T03:20:26.240Z,163.58
2023-02-14T03:23:41.936Z,164.76
2023-02-14T03:27:00.168Z,168.46
2023-02-14T03:30:21.373Z,169.72
2023-02-14T03:33:42.113Z,165.50
2023-02-14T03:36:59.326Z,160.37
2023-02-14T03:40:14.017Z,157.62
2023-02-14T03:43:33.826Z,159.85
2023-02-14T03:46:48.718Z,160.07
2023-02-14T03:50:05.248Z,161.14
2023-02-14T03:53:16.263Z,160.80
2023-02-14T03:56:35.344Z,166.50
2023-02-14T03:59:45.885Z,163.11
2023-02-14T04:03:02.947Z,170.41
2023-02-14T04:06:09.580Z,172.67
2023-02-14T04:09:16.401Z,169.80
2023-02-14T04:12:35.941Z,171.28
2023-02-14T04:15:46.980Z,163.69
2023-02-14T04:19:04.992Z,167.44
2023-02-14T04:22:11.564Z,164.79
2023-02-14T04:25:17.905Z,165.80
2023-02-14T04:28:24.583Z,170.08
2023-02-14T04:31:33.260Z,172.14
2023-02-14T04:34:41.027Z,175.88
2023-02-14T04:37:46.859Z,176.61
2023-02-14T04:40:54.145Z,188.00
2023-02-14T04:43:59.918Z,188.15
2023-02-14T04:47:10.607Z,186.44
2023-02-14T04:50:17.624Z,182.78
2023-02-14T04:53:24.659Z,177.79
2023-02-14T04:56:30.595Z,174.67
2023-02-14T04:59:37.478Z,174.42
2023-02-14T05:02:45.816Z,173.30
2023-02-14T05:05:52.489Z,182.36
2023-02-14T05:08:58.600Z,178.76
2023-02-14T05:12:05.377Z,179.42
2023-02-14T05:15:12.703Z,177.73
2023-02-14T05:18:21.999Z,179.29
2023-02-14T05:21:28.651Z,185.58
2023-02-14T05:24:35.332Z,191.40
2023-02-14T05:27:41.133Z,185.22
2023-02-14T05:30:50.139Z,177.55
2023-02-14T05:33:58.546Z,175.25
2023-02-14T05:37:05.371Z,181.74
2023-02-14T05:40:14.065Z,188.14
2023-02-14T05:43:20.612Z,189.13
2023-02-14T05:46:26.351Z,186.25
2023-02-14T05:49:35.486Z,183.29
2023-02-14T05:52:41.690Z,187.91
2023-02-14T05:55:48.312Z,203.22
2023-02-14T05:58:54.036Z,205.94
2023-02-14T06:02:00.625Z,193.59
2023-02-14T06:05:11.853Z,184.62
2023-02-14T06:08:18.489Z,181.77
2023-02-14T06:11:24.309Z,178.60
2023-02-14T06:14:30.931Z,177.24
2023-02-14T06:17:36.809Z,178.09
2023-02-14T06:20:46.040Z,178.99
2023-02-14T06:23:51.826Z,183.53
2023-02-14T06:26:58.386Z,183.93
2023-02-14T06:30:04.830Z,197.66
2023-02-14T06:33:11.560Z,204.32
2023-02-14T06:36:20.398Z,214.19
2023-02-14T06:39:27.192Z,209.89
2023-02-14T06:42:32.973Z,213.40
2023-02-14T06:45:39.586Z,202.02
2023-02-14T06:48:45.806Z,198.34
2023-02-14T06:51:55.121Z,188.22
2023-02-14T06:55:00.962Z,201.73
2023-02-14T06:58:07.849Z,195.10
2023-02-14T07:01:13.755Z,173.91
2023-02-14T07:04:20.725Z,166.27
2023-02-14T07:07:29.266Z,179.40
2023-02-14T07:10:36.014Z,183.64
2023-02-14T07:13:41.841Z,192.07
2023-02-14T07:16:48.538Z,173.86
2023-02-14T07:19:54.269Z,168.57
2023-02-14T07:23:04.721Z,187.17
2023-02-14T07:26:10.814Z,229.90
2023-02-14T07:29:18.671Z,284.74
2023-02-14T07:32:25.911Z,333.72
2023-02-14T07:35:33.239Z,275.42
2023-02-14T07:38:41.722Z,271.80
2023-02-14T07:41:48.330Z,254.56
2023-02-14T07:44:57.712Z,211.25
2023-02-14T07:48:04.796Z,190.64
2023-02-14T07:51:11.355Z,187.70
2023-02-14T07:54:21.226Z,192.70
2023-02-14T08:00:48.290Z,207.54
2023-02-14T08:03:54.540Z,186.46
2023-02-14T08:07:01.195Z,178.58
2023-02-14T08:10:12.990Z,182.16
2023-02-14T08:13:19.926Z,166.66
2023-02-14T08:16:25.856Z,163.06
2023-02-14T08:19:33.504Z,167.49
2023-02-14T08:22:39.336Z,176.31
2023-02-14T08:25:48.708Z,174.81
2023-02-14T08:28:54.628Z,183.01
2023-02-14T08:32:01.937Z,174.45
2023-02-14T08:35:08.152Z,167.58
2023-02-14T08:38:15.039Z,171.04
2023-02-14T08:41:23.530Z,169.50
2023-02-14T08:44:30.407Z,167.91
2023-02-14T08:47:38.656Z,178.54
2023-02-14T08:50:45.897Z,174.04
2023-02-14T08:53:57.052Z,158.05
2023-02-14T08:57:06.861Z,152.34
2023-02-14T09:00:15.359Z,147.08
2023-02-14T09:03:22.787Z,165.12
2023-02-14T09:06:29.849Z,250.00
2023-02-14T09:09:37.543Z,238.87
2023-02-14T09:12:46.265Z,161.60
2023-02-14T09:15:55.441Z,141.08
2023-02-14T09:19:01.409Z,152.10
2023-02-14T09:22:11.216Z,200.63
2023-02-14T09:25:16.998Z,168.52
2023-02-14T09:28:26.159Z,288.12
2023-02-14T09:31:31.995Z,179.01
2023-02-14T09:34:39.380Z,138.17
2023-02-14T09:37:45.107Z,134.08
2023-02-14T09:40:54.725Z,113.90
2023-02-14T09:44:10.218Z,114.11
2023-02-14T09:47:31.998Z,112.94
2023-02-14T09:50:48.924Z,114.54
2023-02-14T09:54:07.121Z,159.70
2023-02-14T09:57:30.727Z,112.83
2023-02-14T10:00:51.831Z,109.57
2023-02-14T10:04:28.639Z,107.75
2023-02-14T10:07:53.281Z,111.70
2023-02-14T10:11:11.685Z,112.75
2023-02-14T10:14:26.230Z,114.56
2023-02-14T10:17:47.165Z,116.13
2023-02-14T10:21:00.772Z,124.36
2023-02-14T10:24:21.050Z,124.14
2023-02-14T10:27:39.771Z,119.94
2023-02-14T10:31:01.670Z,121.67
2023-02-14T10:34:25.464Z,122.58
2023-02-14T10:38:01.022Z,119.43
2023-02-14T10:41:30.177Z,124.72
2023-02-14T10:44:57.276Z,115.37
2023-02-14T10:48:23.295Z,121.43
2023-02-14T10:51:46.923Z,128.32
2023-02-14T10:55:00.108Z,131.54
2023-02-14T10:58:13.019Z,113.39
2023-02-14T11:01:22.606Z,125.85
2023-02-14T11:04:29.143Z,117.85
2023-02-14T11:07:39.845Z,124.42
2023-02-14T11:10:46.138Z,116.31
2023-02-14T11:13:53.656Z,118.79
2023-02-14T11:17:01.937Z,115.40
2023-02-14T11:20:30.668Z,131.38
2023-02-14T11:23:44.104Z,103.31
2023-02-14T11:26:55.732Z,95.32
2023-02-14T11:30:03.264Z,117.08
2023-02-14T11:33:15.732Z,126.16
2023-02-14T11:36:21.808Z,113.40
2023-02-14T11:39:37.106Z,109.87
2023-02-14T11:42:51.646Z,97.70
2023-02-14T11:46:19.190Z,92.81
2023-02-14T11:49:35.050Z,106.43
2023-02-14T11:52:54.992Z,96.55
2023-02-14T11:56:03.914Z,92.35
2023-02-14T11:59:23.574Z,90.35
2023-02-14T12:02:43.562Z,85.23
2023-02-14T12:05:57.429Z,89.50
2023-02-14T12:09:16.249Z,92.52
2023-02-14T12:12:29.160Z,95.76
2023-02-14T12:15:40.893Z,88.32
2023-02-14T12:19:02.501Z,87.20
2023-02-14T12:22:10.345Z,84.84
2023-02-14T12:25:25.698Z,75.77
2023-02-14T12:28:46.068Z,87.75
2023-02-14T12:31:53.501Z,91.81
2023-02-14T12:35:16.276Z,95.75
2023-02-14T12:38:44.787Z,101.97
2023-02-14T12:42:07.954Z,100.73
2023-02-14T12:45:30.276Z,99.82
2023-02-14T12:49:03.278Z,100.80
2023-02-14T12:52:41.389Z,100.25
2023-02-14T12:56:06.712Z,94.84
2023-02-14T12:59:35.304Z,95.99
2023-02-14T13:03:44.202Z,95.32
2023-02-14T13:07:00.490Z,94.85
2023-02-14T13:10:30.155Z,91.44
2023-02-14T13:14:04.565Z,80.73
2023-02-14T13:17:27.418Z,123.80
2023-02-14T13:20:52.454Z,110.13
2023-02-14T13:24:14.099Z,104.21
2023-02-14T13:27:30.391Z,101.77
2023-02-14T13:30:42.258Z,108.39
2023-02-14T13:33:55.600Z,113.84
2023-02-14T13:37:12.554Z,107.82
2023-02-14T13:40:26.762Z,158.65
2023-02-14T13:43:53.131Z,1537.55
2023-02-14T13:47:00.054Z,2725.79
2023-02-14T13:50:09.480Z,1754.09
2023-02-14T13:53:41.896Z,3041.16
2023-02-14T13:56:47.768Z,1261.55
2023-02-14T14:00:38.316Z,575.69
2023-02-14T14:04:01.957Z,602.41
2023-02-14T14:07:30.180Z,674.32
2023-02-14T14:10:51.853Z,180.56
2023-02-14T14:14:01.972Z,304.12
2023-02-14T14:17:28.388Z,903.81
2023-02-14T14:20:52.667Z,1077.82
2023-02-14T14:24:28.284Z,1208.23
2023-02-14T14:27:44.956Z,451.22
2023-02-14T14:30:51.895Z,422.76
2023-02-14T14:34:04.287Z,743.46
2023-02-14T14:37:21.353Z,2421.19
2023-02-14T14:40:32.188Z,1221.78
2023-02-14T14:43:43.856Z,2935.98
2023-02-14T14:46:53.931Z,2231.05
2023-02-14T14:50:10.864Z,2032.88
2023-02-14T14:53:29.406Z,2220.92
2023-02-14T14:56:42.362Z,761.40
2023-02-14T14:59:52.219Z,1152.34
2023-02-14T15:03:09.761Z,1804.98
2023-02-14T15:06:23.137Z,1734.95
2023-02-14T15:09:36.384Z,2014.21
2023-02-14T15:12:56.542Z,1263.32
2023-02-14T15:16:05.778Z,386.78
2023-02-14T15:19:22.567Z,160.38
2023-02-14T15:22:34.000Z,475.20
2023-02-14T15:25:44.759Z,409.09
2023-02-14T15:29:01.306Z,375.47
2023-02-14T15:32:15.439Z,510.53
2023-02-14T15:35:32.104Z,322.76
2023-02-14T15:38:45.206Z,286.79
2023-02-14T15:41:51.154Z,270.44
2023-02-14T15:45:25.604Z,312.53
2023-02-14T15:48:38.016Z,230.85
2023-02-14T15:51:50.533Z,300.25
2023-02-14T15:54:56.454Z,411.76
2023-02-14T15:58:09.894Z,1113.84
2023-02-14T16:01:16.929Z,391.26
2023-02-14T16:04:33.277Z,712.41
2023-02-14T16:07:39.203Z,460.10
2023-02-14T16:10:46.270Z,804.84
2023-02-14T16:13:52.084Z,767.17
2023-02-14T16:17:04.822Z,1594.21
2023-02-14T16:20:45.472Z,2790.72
2023-02-14T16:24:16.018Z,2632.45
2023-02-14T16:27:21.863Z,1550.48
2023-02-14T16:30:28.927Z,954.43
2023-02-14T16:33:40.111Z,592.38
2023-02-14T16:36:49.656Z,413.07
2023-02-14T16:39:59.567Z,367.72
2023-02-14T16:43:09.507Z,379.83
2023-02-14T16:46:17.709Z,424.77
2023-02-14T16:49:25.591Z,365.28
2023-02-14T16:52:34.486Z,360.45
2023-02-14T16:55:42.701Z,294.03
2023-02-14T16:58:50.380Z,285.68
2023-02-14T17:02:02.872Z,361.50
2023-02-14T17:05:10.131Z,306.40
2023-02-14T17:08:20.720Z,317.79
2023-02-14T17:11:31.080Z,262.04
2023-02-14T17:14:42.729Z,248.94
2023-02-14T17:17:52.204Z,248.52
2023-02-14T17:20:59.435Z,261.25
2023-02-14T17:24:08.819Z,327.02
2023-02-14T17:27:15.564Z,297.70
2023-02-14T17:30:23.343Z,371.95
2023-02-14T17:33:30.693Z,437.52
2023-02-14T17:36:36.887Z,406.55
2023-02-14T17:39:46.268Z,423.06
2023-02-14T17:42:52.206Z,407.39
2023-02-14T17:45:58.880Z,418.77
2023-02-14T17:49:05.480Z,446.58
2023-02-14T17:52:12.322Z,487.34
2023-02-14T17:55:21.041Z,582.44
2023-02-14T17:58:27.754Z,586.83
2023-02-14T18:01:36.375Z,533.25
2023-02-14T18:04:43.205Z,497.91
2023-02-14T18:07:48.960Z,584.53
2023-02-14T18:10:58.977Z,500.57
2023-02-14T18:14:04.980Z,450.08
2023-02-14T18:17:11.848Z,413.40
2023-02-14T18:20:17.687Z,459.73
2023-02-14T18:23:25.003Z,415.34
2023-02-14T18:26:34.683Z,502.75
2023-02-14T18:29:41.608Z,467.70
2023-02-14T18:32:47.995Z,426.87
2023-02-14T18:35:54.564Z,506.37
2023-02-14T18:39:01.185Z,560.51
2023-02-14T18:42:10.468Z,686.30
2023-02-14T18:45:16.405Z,580.74
2023-02-14T18:48:23.146Z,446.09
2023-02-14T18:51:33.502Z,411.56
2023-02-14T18:54:40.539Z,423.35
2023-02-14T18:57:49.052Z,463.69
2023-02-14T19:00:56.679Z,437.35
2023-02-14T19:04:06.206Z,413.96
2023-02-14T19:07:15.715Z,427.46
2023-02-14T19:10:22.070Z,449.40
2023-02-14T19:13:32.483Z,426.66
2023-02-14T19:16:51.263Z,441.17
2023-02-14T19:20:00.097Z,425.75
2023-02-14T19:23:06.668Z,398.94
2023-02-14T19:26:15.169Z,409.95
2023-02-14T19:29:27.455Z,433.56
2023-02-14T19:32:34.105Z,450.39
2023-02-14T19:35:40.393Z,442.16
2023-02-14T19:38:51.351Z,432.40
2023-02-14T19:41:57.151Z,454.37
2023-02-14T19:45:09.950Z,452.57
2023-02-14T19:48:15.928Z,446.82
2023-02-14T19:51:29.073Z,436.33
2023-02-14T19:54:34.995Z,438.73
2023-02-14T19:57:42.493Z,439.57
2023-02-14T20:00:59.629Z,443.53
2023-02-14T20:04:10.332Z,443.71
2023-02-14T20:07:16.893Z,444.89
2023-02-14T20:10:24.003Z,439.41
2023-02-14T20:13:31.384Z,468.39
2023-02-14T20:16:41.688Z,488.32
2023-02-14T20:19:47.585Z,481.67
2023-02-14T20:22:54.139Z,468.78
2023-02-14T20:26:02.923Z,436.38
2023-02-14T20:29:12.828Z,431.84
2023-02-14T20:32:22.018Z,460.93
2023-02-14T20:35:31.774Z,491.81
2023-02-14T20:38:38.541Z,506.19
2023-02-14T20:41:50.210Z,507.54
2023-02-14T20:44:56.200Z,475.22
2023-02-14T20:48:07.262Z,467.50
2023-02-14T20:51:14.994Z,466.77
2023-02-14T20:54:24.723Z,469.86
2023-02-14T20:57:32.420Z,463.11
2023-02-14T21:00:39.470Z,465.06
2023-02-14T21:03:51.228Z,491.15
2023-02-14T21:07:00.399Z,474.10
2023-02-14T21:10:07.417Z,456.96
2023-02-14T21:13:14.155Z,447.47
2023-02-14T21:16:22.850Z,454.62
2023-02-14T21:19:31.996Z,460.37
2023-02-14T21:22:37.942Z,492.20
2023-02-14T21:25:45.084Z,509.07
2023-02-14T21:29:01.141Z,482.85
2023-02-14T21:32:10.418Z,504.78
2023-02-14T21:35:19.345Z,576.41
2023-02-14T21:38:26.507Z,563.52
2023-02-14T21:41:34.696Z,587.12
2023-02-14T21:44:54.366Z,575.11
2023-02-14T21:48:12.540Z,631.82
2023-02-14T21:51:23.115Z,682.04
2023-02-14T21:54:29.037Z,610.78
2023-02-14T21:57:35.878Z,661.34
2023-02-14T22:00:48.260Z,748.54
2023-02-14T22:03:57.028Z,824.94
2023-02-14T22:07:05.564Z,719.05
2023-02-14T22:10:13.972Z,658.50
2023-02-14T22:13:19.775Z,604.26
2023-02-14T22:16:28.546Z,538.27
2023-02-14T22:19:36.930Z,553.91
2023-02-14T22:22:47.363Z,601.32
2023-02-14T22:25:57.525Z,743.93
2023-02-14T22:29:06.137Z,628.05
2023-02-14T22:32:12.054Z,556.75
2023-02-14T22:35:19.166Z,538.88
2023-02-14T22:38:28.258Z,512.06
2023-02-14T22:41:37.880Z,497.81
2023-02-14T22:44:43.908Z,478.37
2023-02-14T22:47:50.533Z,497.23
2023-02-14T22:50:56.266Z,490.86
2023-02-14T22:54:08.631Z,491.13
2023-02-14T22:57:17.032Z,216.72
2023-02-14T23:00:25.051Z,345.09
2023-02-14T23:03:31.099Z,333.38
2023-02-14T23:06:40.286Z,336.06
2023-02-14T23:09:48.672Z,334.77
2023-02-14T23:13:07.816Z,360.24
2023-02-14T23:16:25.962Z,364.69
2023-02-14T23:19:49.327Z,359.04
2023-02-14T23:22:54.999Z,436.71
2023-02-14T23:26:04.334Z,498.97
2023-02-14T23:29:10.108Z,536.75
2023-02-14T23:32:17.619Z,490.79
2023-02-14T23:35:23.399Z,483.48
2023-02-14T23:38:29.974Z,436.13
2023-02-14T23:41:50.373Z,560.47
2023-02-14T23:45:17.004Z,351.30
2023-02-14T23:48:22.798Z,492.09
2023-02-14T23:51:29.367Z,516.83
2023-02-14T23:54:35.842Z,574.96
2023-02-14T23:57:44.959Z,536.80
